sensor_id;sensor_type;location;lat;lon;timestamp;P1;durP1;ratioP1;P2;durP2;ratioP2
32152;SDS011;18656;50.580;11.392;2022-08-21T00:02:17;25.38;;;19.08;;
32152;SDS011;18656;50.580;11.392;2022-08-21T00:04:46;22.90;;;19.13;;
32152;SDS011;18656;50.580;11.392;2022-08-21T00:07:23;23.05;;;18.60;;
32152;SDS011;18656;50.580;11.392;2022-08-21T00:09:50;24.13;;;18.38;;
32152;SDS011;18656;50.580;11.392;2022-08-21T00:12:18;23.23;;;19.38;;
32152;SDS011;18656;50.580;11.392;2022-08-21T00:14:45;23.50;;;18.50;;
32152;SDS011;18656;50.580;11.392;2022-08-21T00:17:12;22.80;;;18.60;;
32152;SDS011;18656;50.580;11.392;2022-08-21T00:19:39;24.33;;;19.17;;
32152;SDS011;18656;50.580;11.392;2022-08-21T00:22:10;25.35;;;18.48;;
32152;SDS011;18656;50.580;11.392;2022-08-21T00:24:38;23.08;;;18.00;;
32152;SDS011;18656;50.580;11.392;2022-08-21T00:27:06;21.83;;;17.63;;
32152;SDS011;18656;50.580;11.392;2022-08-21T00:29:33;19.92;;;17.35;;
32152;SDS011;18656;50.580;11.392;2022-08-21T00:32:01;25.55;;;17.83;;
32152;SDS011;18656;50.580;11.392;2022-08-21T00:34:28;23.35;;;17.10;;
32152;SDS011;18656;50.580;11.392;2022-08-21T00:36:55;20.08;;;16.88;;
32152;SDS011;18656;50.580;11.392;2022-08-21T00:39:22;18.55;;;15.90;;
32152;SDS011;18656;50.580;11.392;2022-08-21T00:41:49;20.25;;;15.20;;
32152;SDS011;18656;50.580;11.392;2022-08-21T00:44:17;21.33;;;17.20;;
32152;SDS011;18656;50.580;11.392;2022-08-21T00:46:44;19.17;;;15.50;;
32152;SDS011;18656;50.580;11.392;2022-08-21T00:49:12;22.25;;;17.15;;
32152;SDS011;18656;50.580;11.392;2022-08-21T00:51:47;20.95;;;16.00;;
32152;SDS011;18656;50.580;11.392;2022-08-21T00:54:15;17.48;;;15.73;;
32152;SDS011;18656;50.580;11.392;2022-08-21T00:56:48;20.33;;;16.23;;
32152;SDS011;18656;50.580;11.392;2022-08-21T00:59:17;19.88;;;16.70;;
32152;SDS011;18656;50.580;11.392;2022-08-21T01:01:45;19.58;;;16.50;;
32152;SDS011;18656;50.580;11.392;2022-08-21T01:04:13;17.33;;;15.52;;
32152;SDS011;18656;50.580;11.392;2022-08-21T01:06:41;17.05;;;15.32;;
32152;SDS011;18656;50.580;11.392;2022-08-21T01:09:08;21.20;;;16.27;;
32152;SDS011;18656;50.580;11.392;2022-08-21T01:11:35;19.10;;;16.63;;
32152;SDS011;18656;50.580;11.392;2022-08-21T01:14:03;17.88;;;15.32;;
32152;SDS011;18656;50.580;11.392;2022-08-21T01:16:30;19.58;;;15.45;;
32152;SDS011;18656;50.580;11.392;2022-08-21T01:18:58;20.33;;;16.50;;
32152;SDS011;18656;50.580;11.392;2022-08-21T01:21:26;17.60;;;15.35;;
32152;SDS011;18656;50.580;11.392;2022-08-21T01:23:54;17.83;;;15.73;;
32152;SDS011;18656;50.580;11.392;2022-08-21T01:26:23;17.17;;;15.38;;
32152;SDS011;18656;50.580;11.392;2022-08-21T01:29:43;18.35;;;16.13;;
32152;SDS011;18656;50.580;11.392;2022-08-21T01:31:50;18.15;;;14.90;;
32152;SDS011;18656;50.580;11.392;2022-08-21T01:34:17;16.48;;;14.63;;
32152;SDS011;18656;50.580;11.392;2022-08-21T01:36:45;16.73;;;15.10;;
32152;SDS011;18656;50.580;11.392;2022-08-21T01:39:13;16.55;;;14.75;;
32152;SDS011;18656;50.580;11.392;2022-08-21T01:41:41;15.52;;;13.93;;
32152;SDS011;18656;50.580;11.392;2022-08-21T01:44:08;16.17;;;13.82;;
32152;SDS011;18656;50.580;11.392;2022-08-21T01:46:35;17.30;;;14.93;;
32152;SDS011;18656;50.580;11.392;2022-08-21T01:49:03;15.50;;;13.90;;
32152;SDS011;18656;50.580;11.392;2022-08-21T01:51:30;15.73;;;14.02;;
32152;SDS011;18656;50.580;11.392;2022-08-21T01:53:58;16.13;;;14.23;;
32152;SDS011;18656;50.580;11.392;2022-08-21T01:56:25;21.10;;;16.67;;
32152;SDS011;18656;50.580;11.392;2022-08-21T01:58:58;18.55;;;15.65;;
32152;SDS011;18656;50.580;11.392;2022-08-21T02:01:25;21.00;;;14.48;;
32152;SDS011;18656;50.580;11.392;2022-08-21T02:03:53;16.38;;;14.68;;
32152;SDS011;18656;50.580;11.392;2022-08-21T02:06:21;15.65;;;14.10;;
32152;SDS011;18656;50.580;11.392;2022-08-21T02:08:52;15.93;;;13.70;;
32152;SDS011;18656;50.580;11.392;2022-08-21T02:11:22;18.80;;;15.23;;
32152;SDS011;18656;50.580;11.392;2022-08-21T02:13:55;17.20;;;14.90;;
32152;SDS011;18656;50.580;11.392;2022-08-21T02:16:22;16.45;;;14.10;;
32152;SDS011;18656;50.580;11.392;2022-08-21T02:18:50;20.52;;;16.25;;
32152;SDS011;18656;50.580;11.392;2022-08-21T02:21:18;22.30;;;15.88;;
32152;SDS011;18656;50.580;11.392;2022-08-21T02:23:46;21.67;;;16.10;;
32152;SDS011;18656;50.580;11.392;2022-08-21T02:26:14;18.35;;;15.32;;
32152;SDS011;18656;50.580;11.392;2022-08-21T02:28:42;21.48;;;16.52;;
32152;SDS011;18656;50.580;11.392;2022-08-21T02:31:11;20.52;;;15.45;;
32152;SDS011;18656;50.580;11.392;2022-08-21T02:33:43;18.05;;;15.68;;
32152;SDS011;18656;50.580;11.392;2022-08-21T02:36:14;20.08;;;15.50;;
32152;SDS011;18656;50.580;11.392;2022-08-21T02:38:50;27.42;;;16.98;;
32152;SDS011;18656;50.580;11.392;2022-08-21T02:41:20;22.45;;;17.90;;
32152;SDS011;18656;50.580;11.392;2022-08-21T02:43:48;21.95;;;16.95;;
32152;SDS011;18656;50.580;11.392;2022-08-21T02:46:16;17.20;;;15.38;;
32152;SDS011;18656;50.580;11.392;2022-08-21T02:48:43;17.83;;;15.93;;
32152;SDS011;18656;50.580;11.392;2022-08-21T02:51:12;21.77;;;16.02;;
32152;SDS011;18656;50.580;11.392;2022-08-21T02:53:40;17.33;;;14.90;;
32152;SDS011;18656;50.580;11.392;2022-08-21T02:56:08;16.88;;;15.05;;
32152;SDS011;18656;50.580;11.392;2022-08-21T02:58:39;17.17;;;14.63;;
32152;SDS011;18656;50.580;11.392;2022-08-21T03:01:08;23.27;;;15.50;;
32152;SDS011;18656;50.580;11.392;2022-08-21T03:03:36;16.75;;;14.95;;
32152;SDS011;18656;50.580;11.392;2022-08-21T03:06:04;16.90;;;15.20;;
32152;SDS011;18656;50.580;11.392;2022-08-21T03:08:31;19.17;;;15.07;;
32152;SDS011;18656;50.580;11.392;2022-08-21T03:10:59;16.40;;;13.60;;
32152;SDS011;18656;50.580;11.392;2022-08-21T03:13:27;14.68;;;13.27;;
32152;SDS011;18656;50.580;11.392;2022-08-21T03:15:55;16.98;;;14.77;;
32152;SDS011;18656;50.580;11.392;2022-08-21T03:18:23;17.23;;;14.98;;
32152;SDS011;18656;50.580;11.392;2022-08-21T03:20:50;17.42;;;15.57;;
32152;SDS011;18656;50.580;11.392;2022-08-21T03:23:17;21.98;;;16.20;;
32152;SDS011;18656;50.580;11.392;2022-08-21T03:25:45;15.80;;;14.00;;
32152;SDS011;18656;50.580;11.392;2022-08-21T03:28:14;15.70;;;13.68;;
32152;SDS011;18656;50.580;11.392;2022-08-21T03:30:42;16.27;;;14.23;;
32152;SDS011;18656;50.580;11.392;2022-08-21T03:33:09;19.98;;;14.05;;
32152;SDS011;18656;50.580;11.392;2022-08-21T03:35:40;16.27;;;13.90;;
32152;SDS011;18656;50.580;11.392;2022-08-21T03:38:08;21.50;;;14.98;;
32152;SDS011;18656;50.580;11.392;2022-08-21T03:40:36;15.98;;;14.25;;
32152;SDS011;18656;50.580;11.392;2022-08-21T03:43:03;17.95;;;14.40;;
32152;SDS011;18656;50.580;11.392;2022-08-21T03:45:30;19.08;;;15.35;;
32152;SDS011;18656;50.580;11.392;2022-08-21T03:47:59;16.30;;;14.30;;
32152;SDS011;18656;50.580;11.392;2022-08-21T03:50:28;17.40;;;14.52;;
32152;SDS011;18656;50.580;11.392;2022-08-21T03:52:56;19.48;;;14.77;;
32152;SDS011;18656;50.580;11.392;2022-08-21T03:55:24;19.83;;;15.15;;
32152;SDS011;18656;50.580;11.392;2022-08-21T03:57:51;27.77;;;16.30;;
32152;SDS011;18656;50.580;11.392;2022-08-21T04:00:19;17.98;;;15.15;;
32152;SDS011;18656;50.580;11.392;2022-08-21T04:02:46;22.00;;;14.80;;
32152;SDS011;18656;50.580;11.392;2022-08-21T04:05:14;20.92;;;16.02;;
32152;SDS011;18656;50.580;11.392;2022-08-21T04:08:03;22.33;;;15.32;;
32152;SDS011;18656;50.580;11.392;2022-08-21T04:10:32;22.05;;;16.13;;
32152;SDS011;18656;50.580;11.392;2022-08-21T04:13:00;18.27;;;15.25;;
32152;SDS011;18656;50.580;11.392;2022-08-21T04:15:27;24.25;;;14.52;;
32152;SDS011;18656;50.580;11.392;2022-08-21T04:17:54;20.23;;;15.05;;
32152;SDS011;18656;50.580;11.392;2022-08-21T04:20:22;22.70;;;14.68;;
32152;SDS011;18656;50.580;11.392;2022-08-21T04:22:49;17.83;;;14.52;;
32152;SDS011;18656;50.580;11.392;2022-08-21T04:25:17;22.73;;;15.23;;
32152;SDS011;18656;50.580;11.392;2022-08-21T04:27:45;17.77;;;14.40;;
32152;SDS011;18656;50.580;11.392;2022-08-21T04:30:13;16.20;;;14.45;;
32152;SDS011;18656;50.580;11.392;2022-08-21T04:32:44;16.08;;;14.23;;
32152;SDS011;18656;50.580;11.392;2022-08-21T04:35:15;17.60;;;14.43;;
32152;SDS011;18656;50.580;11.392;2022-08-21T04:37:42;17.95;;;14.77;;
32152;SDS011;18656;50.580;11.392;2022-08-21T04:40:10;16.70;;;14.38;;
32152;SDS011;18656;50.580;11.392;2022-08-21T04:42:45;17.33;;;14.32;;
32152;SDS011;18656;50.580;11.392;2022-08-21T04:45:16;16.08;;;14.38;;
32152;SDS011;18656;50.580;11.392;2022-08-21T04:47:47;23.48;;;15.75;;
32152;SDS011;18656;50.580;11.392;2022-08-21T04:50:18;15.10;;;13.57;;
32152;SDS011;18656;50.580;11.392;2022-08-21T04:52:46;15.70;;;13.70;;
32152;SDS011;18656;50.580;11.392;2022-08-21T04:55:13;16.48;;;14.55;;
32152;SDS011;18656;50.580;11.392;2022-08-21T04:57:41;14.80;;;13.38;;
32152;SDS011;18656;50.580;11.392;2022-08-21T05:00:14;17.00;;;14.20;;
32152;SDS011;18656;50.580;11.392;2022-08-21T05:02:41;15.88;;;14.13;;
32152;SDS011;18656;50.580;11.392;2022-08-21T05:05:08;16.77;;;14.13;;
32152;SDS011;18656;50.580;11.392;2022-08-21T05:07:36;17.33;;;14.50;;
32152;SDS011;18656;50.580;11.392;2022-08-21T05:10:08;18.55;;;14.38;;
32152;SDS011;18656;50.580;11.392;2022-08-21T05:12:37;15.27;;;13.75;;
32152;SDS011;18656;50.580;11.392;2022-08-21T05:15:05;16.00;;;14.05;;
32152;SDS011;18656;50.580;11.392;2022-08-21T05:17:38;15.63;;;13.73;;
32152;SDS011;18656;50.580;11.392;2022-08-21T05:20:05;15.10;;;13.60;;
32152;SDS011;18656;50.580;11.392;2022-08-21T05:22:32;14.75;;;13.15;;
32152;SDS011;18656;50.580;11.392;2022-08-21T05:24:59;17.88;;;14.90;;
32152;SDS011;18656;50.580;11.392;2022-08-21T05:27:27;15.65;;;13.70;;
32152;SDS011;18656;50.580;11.392;2022-08-21T05:29:56;16.75;;;14.20;;
32152;SDS011;18656;50.580;11.392;2022-08-21T05:32:24;18.38;;;13.93;;
32152;SDS011;18656;50.580;11.392;2022-08-21T05:34:51;18.35;;;14.40;;
32152;SDS011;18656;50.580;11.392;2022-08-21T05:37:18;17.40;;;12.57;;
32152;SDS011;18656;50.580;11.392;2022-08-21T05:39:45;14.05;;;12.55;;
32152;SDS011;18656;50.580;11.392;2022-08-21T05:42:33;16.02;;;13.43;;
32152;SDS011;18656;50.580;11.392;2022-08-21T05:45:00;15.05;;;13.45;;
32152;SDS011;18656;50.580;11.392;2022-08-21T05:47:27;16.13;;;13.90;;
32152;SDS011;18656;50.580;11.392;2022-08-21T05:49:54;14.57;;;13.07;;
32152;SDS011;18656;50.580;11.392;2022-08-21T05:52:21;14.65;;;12.77;;
32152;SDS011;18656;50.580;11.392;2022-08-21T05:54:49;14.50;;;12.48;;
32152;SDS011;18656;50.580;11.392;2022-08-21T05:57:16;16.75;;;13.45;;
32152;SDS011;18656;50.580;11.392;2022-08-21T05:59:43;14.90;;;12.80;;
32152;SDS011;18656;50.580;11.392;2022-08-21T06:02:11;18.95;;;11.80;;
32152;SDS011;18656;50.580;11.392;2022-08-21T06:04:38;14.35;;;12.80;;
32152;SDS011;18656;50.580;11.392;2022-08-21T06:07:06;14.07;;;12.55;;
32152;SDS011;18656;50.580;11.392;2022-08-21T06:09:34;13.85;;;11.77;;
32152;SDS011;18656;50.580;11.392;2022-08-21T06:12:08;13.02;;;11.77;;
32152;SDS011;18656;50.580;11.392;2022-08-21T06:14:37;12.15;;;11.05;;
32152;SDS011;18656;50.580;11.392;2022-08-21T06:17:09;12.02;;;10.93;;
32152;SDS011;18656;50.580;11.392;2022-08-21T06:19:37;12.68;;;11.50;;
32152;SDS011;18656;50.580;11.392;2022-08-21T06:22:04;11.75;;;10.65;;
32152;SDS011;18656;50.580;11.392;2022-08-21T06:24:31;10.57;;;9.60;;
32152;SDS011;18656;50.580;11.392;2022-08-21T06:27:03;10.27;;;9.27;;
32152;SDS011;18656;50.580;11.392;2022-08-21T06:29:33;8.85;;;7.95;;
32152;SDS011;18656;50.580;11.392;2022-08-21T06:32:10;8.27;;;7.00;;
32152;SDS011;18656;50.580;11.392;2022-08-21T06:34:38;7.10;;;6.60;;
32152;SDS011;18656;50.580;11.392;2022-08-21T06:37:05;9.60;;;8.73;;
32152;SDS011;18656;50.580;11.392;2022-08-21T06:39:33;7.82;;;7.13;;
32152;SDS011;18656;50.580;11.392;2022-08-21T06:42:00;7.63;;;6.93;;
32152;SDS011;18656;50.580;11.392;2022-08-21T06:44:29;7.53;;;6.93;;
32152;SDS011;18656;50.580;11.392;2022-08-21T06:46:56;8.75;;;7.85;;
32152;SDS011;18656;50.580;11.392;2022-08-21T06:49:23;7.13;;;6.63;;
32152;SDS011;18656;50.580;11.392;2022-08-21T06:51:51;6.68;;;6.18;;
32152;SDS011;18656;50.580;11.392;2022-08-21T06:54:18;6.07;;;5.57;;
32152;SDS011;18656;50.580;11.392;2022-08-21T06:56:45;7.15;;;6.28;;
32152;SDS011;18656;50.580;11.392;2022-08-21T06:59:13;7.30;;;6.60;;
32152;SDS011;18656;50.580;11.392;2022-08-21T07:01:40;6.78;;;5.95;;
32152;SDS011;18656;50.580;11.392;2022-08-21T07:04:07;7.88;;;6.72;;
32152;SDS011;18656;50.580;11.392;2022-08-21T07:06:34;9.02;;;6.25;;
32152;SDS011;18656;50.580;11.392;2022-08-21T07:09:02;5.22;;;4.93;;
32152;SDS011;18656;50.580;11.392;2022-08-21T07:11:29;7.93;;;7.03;;
32152;SDS011;18656;50.580;11.392;2022-08-21T07:14:04;8.30;;;6.28;;
32152;SDS011;18656;50.580;11.392;2022-08-21T07:16:31;7.97;;;6.50;;
32152;SDS011;18656;50.580;11.392;2022-08-21T07:18:58;14.15;;;7.60;;
32152;SDS011;18656;50.580;11.392;2022-08-21T07:21:25;17.65;;;8.00;;
32152;SDS011;18656;50.580;11.392;2022-08-21T07:23:53;16.73;;;9.07;;
32152;SDS011;18656;50.580;11.392;2022-08-21T07:26:20;18.95;;;9.48;;
32152;SDS011;18656;50.580;11.392;2022-08-21T07:28:48;15.60;;;9.52;;
32152;SDS011;18656;50.580;11.392;2022-08-21T07:31:17;21.65;;;10.38;;
32152;SDS011;18656;50.580;11.392;2022-08-21T07:33:44;20.48;;;10.00;;
32152;SDS011;18656;50.580;11.392;2022-08-21T07:36:12;16.42;;;10.32;;
32152;SDS011;18656;50.580;11.392;2022-08-21T07:38:39;16.65;;;11.77;;
32152;SDS011;18656;50.580;11.392;2022-08-21T07:41:09;16.77;;;11.40;;
32152;SDS011;18656;50.580;11.392;2022-08-21T07:43:40;14.07;;;10.10;;
32152;SDS011;18656;50.580;11.392;2022-08-21T07:46:11;13.00;;;10.80;;
32152;SDS011;18656;50.580;11.392;2022-08-21T07:48:39;11.90;;;10.23;;
32152;SDS011;18656;50.580;11.392;2022-08-21T07:51:07;12.73;;;11.32;;
32152;SDS011;18656;50.580;11.392;2022-08-21T07:53:35;12.07;;;11.07;;
32152;SDS011;18656;50.580;11.392;2022-08-21T07:56:05;12.40;;;11.27;;
32152;SDS011;18656;50.580;11.392;2022-08-21T07:58:34;11.98;;;10.77;;
32152;SDS011;18656;50.580;11.392;2022-08-21T08:01:01;9.00;;;8.27;;
32152;SDS011;18656;50.580;11.392;2022-08-21T08:03:28;12.48;;;9.30;;
32152;SDS011;18656;50.580;11.392;2022-08-21T08:05:56;9.48;;;8.68;;
32152;SDS011;18656;50.580;11.392;2022-08-21T08:08:23;10.07;;;9.10;;
32152;SDS011;18656;50.580;11.392;2022-08-21T08:10:51;9.98;;;8.23;;
32152;SDS011;18656;50.580;11.392;2022-08-21T08:13:19;9.20;;;8.40;;
32152;SDS011;18656;50.580;11.392;2022-08-21T08:15:46;9.20;;;8.38;;
32152;SDS011;18656;50.580;11.392;2022-08-21T08:18:14;10.25;;;9.27;;
32152;SDS011;18656;50.580;11.392;2022-08-21T08:20:41;12.90;;;9.50;;
32152;SDS011;18656;50.580;11.392;2022-08-21T08:23:12;8.77;;;7.97;;
32152;SDS011;18656;50.580;11.392;2022-08-21T08:25:39;8.60;;;7.85;;
32152;SDS011;18656;50.580;11.392;2022-08-21T08:28:06;8.75;;;7.93;;
32152;SDS011;18656;50.580;11.392;2022-08-21T08:30:43;9.00;;;8.20;;
32152;SDS011;18656;50.580;11.392;2022-08-21T08:33:11;10.63;;;9.65;;
32152;SDS011;18656;50.580;11.392;2022-08-21T08:35:38;9.63;;;8.68;;
32152;SDS011;18656;50.580;11.392;2022-08-21T08:38:07;10.70;;;9.73;;
32152;SDS011;18656;50.580;11.392;2022-08-21T08:40:37;8.45;;;7.75;;
32152;SDS011;18656;50.580;11.392;2022-08-21T08:45:36;8.38;;;7.63;;
32152;SDS011;18656;50.580;11.392;2022-08-21T08:48:05;9.35;;;8.45;;
32152;SDS011;18656;50.580;11.392;2022-08-21T08:50:52;9.02;;;8.30;;
32152;SDS011;18656;50.580;11.392;2022-08-21T08:53:26;7.53;;;6.82;;
32152;SDS011;18656;50.580;11.392;2022-08-21T08:55:55;7.95;;;7.25;;
32152;SDS011;18656;50.580;11.392;2022-08-21T08:58:23;6.65;;;6.05;;
32152;SDS011;18656;50.580;11.392;2022-08-21T09:00:52;6.15;;;5.65;;
32152;SDS011;18656;50.580;11.392;2022-08-21T09:03:19;5.88;;;5.22;;
32152;SDS011;18656;50.580;11.392;2022-08-21T09:08:34;5.35;;;4.85;;
32152;SDS011;18656;50.580;11.392;2022-08-21T09:11:08;5.95;;;5.35;;
32152;SDS011;18656;50.580;11.392;2022-08-21T09:24:15;5.00;;;4.70;;
32152;SDS011;18656;50.580;11.392;2022-08-21T09:26:54;5.10;;;4.70;;
32152;SDS011;18656;50.580;11.392;2022-08-21T09:29:24;5.80;;;4.80;;
32152;SDS011;18656;50.580;11.392;2022-08-21T09:31:55;5.65;;;4.20;;
32152;SDS011;18656;50.580;11.392;2022-08-21T09:34:27;5.43;;;4.97;;
32152;SDS011;18656;50.580;11.392;2022-08-21T09:36:55;5.10;;;4.35;;
32152;SDS011;18656;50.580;11.392;2022-08-21T09:39:27;5.05;;;4.55;;
32152;SDS011;18656;50.580;11.392;2022-08-21T09:41:58;5.60;;;4.53;;
32152;SDS011;18656;50.580;11.392;2022-08-21T09:44:29;4.05;;;3.83;;
32152;SDS011;18656;50.580;11.392;2022-08-21T09:46:57;4.10;;;3.80;;
32152;SDS011;18656;50.580;11.392;2022-08-21T09:49:32;3.90;;;3.65;;
32152;SDS011;18656;50.580;11.392;2022-08-21T09:52:01;3.97;;;3.67;;
32152;SDS011;18656;50.580;11.392;2022-08-21T09:54:33;4.10;;;3.70;;
32152;SDS011;18656;50.580;11.392;2022-08-21T09:57:11;5.45;;;3.78;;
32152;SDS011;18656;50.580;11.392;2022-08-21T10:00:07;3.53;;;3.22;;
32152;SDS011;18656;50.580;11.392;2022-08-21T10:02:35;3.30;;;3.10;;
32152;SDS011;18656;50.580;11.392;2022-08-21T10:05:15;4.45;;;4.05;;
32152;SDS011;18656;50.580;11.392;2022-08-21T10:07:43;4.00;;;3.60;;
32152;SDS011;18656;50.580;11.392;2022-08-21T10:10:16;17.73;;;3.58;;
32152;SDS011;18656;50.580;11.392;2022-08-21T10:15:22;2.72;;;2.53;;
32152;SDS011;18656;50.580;11.392;2022-08-21T10:20:32;2.92;;;2.75;;
32152;SDS011;18656;50.580;11.392;2022-08-21T10:25:49;3.20;;;3.00;;
32152;SDS011;18656;50.580;11.392;2022-08-21T10:28:46;3.55;;;3.25;;
32152;SDS011;18656;50.580;11.392;2022-08-21T10:31:21;3.55;;;3.25;;
32152;SDS011;18656;50.580;11.392;2022-08-21T10:42:08;4.00;;;3.70;;
32152;SDS011;18656;50.580;11.392;2022-08-21T10:44:45;3.03;;;2.78;;
32152;SDS011;18656;50.580;11.392;2022-08-21T10:52:17;2.40;;;2.30;;
32152;SDS011;18656;50.580;11.392;2022-08-21T10:55:00;4.35;;;2.97;;
32152;SDS011;18656;50.580;11.392;2022-08-21T10:57:33;5.72;;;2.90;;
32152;SDS011;18656;50.580;11.392;2022-08-21T11:00:05;3.47;;;3.17;;
32152;SDS011;18656;50.580;11.392;2022-08-21T11:02:39;3.42;;;2.38;;
32152;SDS011;18656;50.580;11.392;2022-08-21T11:05:18;4.38;;;2.88;;
32152;SDS011;18656;50.580;11.392;2022-08-21T11:07:48;3.67;;;2.90;;
32152;SDS011;18656;50.580;11.392;2022-08-21T11:10:21;3.47;;;2.60;;
32152;SDS011;18656;50.580;11.392;2022-08-21T11:13:00;5.05;;;2.60;;
32152;SDS011;18656;50.580;11.392;2022-08-21T11:20:43;3.35;;;2.58;;
32152;SDS011;18656;50.580;11.392;2022-08-21T11:23:17;2.75;;;2.55;;
32152;SDS011;18656;50.580;11.392;2022-08-21T11:25:47;2.50;;;2.30;;
32152;SDS011;18656;50.580;11.392;2022-08-21T11:28:23;3.72;;;2.47;;
32152;SDS011;18656;50.580;11.392;2022-08-21T11:31:04;2.50;;;2.30;;
32152;SDS011;18656;50.580;11.392;2022-08-21T11:36:00;6.97;;;2.78;;
32152;SDS011;18656;50.580;11.392;2022-08-21T11:38:34;3.05;;;2.70;;
32152;SDS011;18656;50.580;11.392;2022-08-21T11:43:57;2.30;;;2.17;;
32152;SDS011;18656;50.580;11.392;2022-08-21T11:51:40;2.88;;;2.35;;
32152;SDS011;18656;50.580;11.392;2022-08-21T11:56:44;3.65;;;2.47;;
32152;SDS011;18656;50.580;11.392;2022-08-21T11:59:20;2.60;;;2.40;;
32152;SDS011;18656;50.580;11.392;2022-08-21T12:01:50;2.60;;;2.40;;
32152;SDS011;18656;50.580;11.392;2022-08-21T12:04:22;3.10;;;2.72;;
32152;SDS011;18656;50.580;11.392;2022-08-21T12:06:51;2.72;;;2.53;;
32152;SDS011;18656;50.580;11.392;2022-08-21T12:12:05;3.03;;;2.83;;
32152;SDS011;18656;50.580;11.392;2022-08-21T12:14:40;7.20;;;2.72;;
32152;SDS011;18656;50.580;11.392;2022-08-21T12:17:08;3.53;;;2.88;;
32152;SDS011;18656;50.580;11.392;2022-08-21T12:19:38;3.20;;;2.90;;
32152;SDS011;18656;50.580;11.392;2022-08-21T12:24:37;3.40;;;2.97;;
32152;SDS011;18656;50.580;11.392;2022-08-21T12:29:45;5.85;;;3.45;;
32152;SDS011;18656;50.580;11.392;2022-08-21T12:37:12;8.13;;;3.50;;
32152;SDS011;18656;50.580;11.392;2022-08-21T12:39:43;5.95;;;3.30;;
32152;SDS011;18656;50.580;11.392;2022-08-21T12:42:15;3.38;;;2.90;;
32152;SDS011;18656;50.580;11.392;2022-08-21T12:44:44;7.90;;;3.38;;
32152;SDS011;18656;50.580;11.392;2022-08-21T12:49:51;5.00;;;2.95;;
32152;SDS011;18656;50.580;11.392;2022-08-21T12:52:24;3.00;;;2.70;;
32152;SDS011;18656;50.580;11.392;2022-08-21T12:54:51;5.45;;;2.67;;
32152;SDS011;18656;50.580;11.392;2022-08-21T12:57:23;2.90;;;2.60;;
32152;SDS011;18656;50.580;11.392;2022-08-21T12:59:54;4.60;;;3.00;;
32152;SDS011;18656;50.580;11.392;2022-08-21T13:02:23;4.80;;;2.80;;
32152;SDS011;18656;50.580;11.392;2022-08-21T13:04:51;2.78;;;2.40;;
32152;SDS011;18656;50.580;11.392;2022-08-21T13:07:25;8.70;;;3.00;;
32152;SDS011;18656;50.580;11.392;2022-08-21T13:10:16;2.28;;;2.17;;
32152;SDS011;18656;50.580;11.392;2022-08-21T13:12:40;3.03;;;2.30;;
32152;SDS011;18656;50.580;11.392;2022-08-21T13:15:08;3.05;;;2.70;;
32152;SDS011;18656;50.580;11.392;2022-08-21T13:17:36;2.83;;;2.63;;
32152;SDS011;18656;50.580;11.392;2022-08-21T13:20:08;2.75;;;2.65;;
32152;SDS011;18656;50.580;11.392;2022-08-21T13:22:41;2.78;;;2.58;;
32152;SDS011;18656;50.580;11.392;2022-08-21T13:25:10;5.03;;;2.60;;
32152;SDS011;18656;50.580;11.392;2022-08-21T13:27:38;3.88;;;2.38;;
32152;SDS011;18656;50.580;11.392;2022-08-21T13:30:07;4.03;;;2.50;;
32152;SDS011;18656;50.580;11.392;2022-08-21T13:32:39;2.92;;;2.53;;
32152;SDS011;18656;50.580;11.392;2022-08-21T13:35:07;2.63;;;2.42;;
32152;SDS011;18656;50.580;11.392;2022-08-21T13:37:37;2.58;;;2.42;;
32152;SDS011;18656;50.580;11.392;2022-08-21T13:40:06;2.58;;;2.40;;
32152;SDS011;18656;50.580;11.392;2022-08-21T13:42:34;5.15;;;2.47;;
32152;SDS011;18656;50.580;11.392;2022-08-21T13:45:01;2.58;;;2.35;;
32152;SDS011;18656;50.580;11.392;2022-08-21T13:47:28;2.60;;;2.40;;
32152;SDS011;18656;50.580;11.392;2022-08-21T13:49:55;2.35;;;2.17;;
32152;SDS011;18656;50.580;11.392;2022-08-21T13:52:25;3.42;;;2.53;;
32152;SDS011;18656;50.580;11.392;2022-08-21T13:54:55;2.78;;;2.13;;
32152;SDS011;18656;50.580;11.392;2022-08-21T13:57:30;2.42;;;2.22;;
32152;SDS011;18656;50.580;11.392;2022-08-21T14:02:38;3.33;;;2.22;;
32152;SDS011;18656;50.580;11.392;2022-08-21T14:05:07;4.85;;;2.22;;
32152;SDS011;18656;50.580;11.392;2022-08-21T14:07:36;2.92;;;2.40;;
32152;SDS011;18656;50.580;11.392;2022-08-21T14:10:11;2.70;;;2.50;;
32152;SDS011;18656;50.580;11.392;2022-08-21T14:12:48;2.33;;;2.17;;
32152;SDS011;18656;50.580;11.392;2022-08-21T14:15:16;4.43;;;1.92;;
32152;SDS011;18656;50.580;11.392;2022-08-21T14:17:45;3.00;;;2.05;;
32152;SDS011;18656;50.580;11.392;2022-08-21T14:20:31;2.60;;;2.40;;
32152;SDS011;18656;50.580;11.392;2022-08-21T14:22:58;5.10;;;2.35;;
32152;SDS011;18656;50.580;11.392;2022-08-21T14:25:30;2.65;;;2.30;;
32152;SDS011;18656;50.580;11.392;2022-08-21T14:30:36;3.25;;;2.08;;
32152;SDS011;18656;50.580;11.392;2022-08-21T14:33:08;4.43;;;2.15;;
32152;SDS011;18656;50.580;11.392;2022-08-21T14:35:36;2.67;;;2.35;;
32152;SDS011;18656;50.580;11.392;2022-08-21T14:38:11;4.00;;;2.30;;
32152;SDS011;18656;50.580;11.392;2022-08-21T14:40:38;2.25;;;2.05;;
32152;SDS011;18656;50.580;11.392;2022-08-21T14:43:06;6.20;;;2.40;;
32152;SDS011;18656;50.580;11.392;2022-08-21T14:45:34;7.70;;;2.60;;
32152;SDS011;18656;50.580;11.392;2022-08-21T14:48:03;2.92;;;2.20;;
32152;SDS011;18656;50.580;11.392;2022-08-21T14:50:30;7.35;;;3.88;;
32152;SDS011;18656;50.580;11.392;2022-08-21T14:52:57;4.22;;;2.30;;
32152;SDS011;18656;50.580;11.392;2022-08-21T14:55:25;3.13;;;2.30;;
32152;SDS011;18656;50.580;11.392;2022-08-21T14:57:53;2.17;;;2.03;;
32152;SDS011;18656;50.580;11.392;2022-08-21T15:00:23;2.17;;;2.05;;
32152;SDS011;18656;50.580;11.392;2022-08-21T15:03:01;6.72;;;2.88;;
32152;SDS011;18656;50.580;11.392;2022-08-21T15:05:28;2.13;;;1.92;;
32152;SDS011;18656;50.580;11.392;2022-08-21T15:07:59;3.00;;;2.08;;
32152;SDS011;18656;50.580;11.392;2022-08-21T15:10:26;2.53;;;2.33;;
32152;SDS011;18656;50.580;11.392;2022-08-21T15:12:53;2.22;;;2.10;;
32152;SDS011;18656;50.580;11.392;2022-08-21T15:15:20;2.30;;;2.10;;
32152;SDS011;18656;50.580;11.392;2022-08-21T15:17:47;7.20;;;1.98;;
32152;SDS011;18656;50.580;11.392;2022-08-21T15:20:15;2.28;;;1.98;;
32152;SDS011;18656;50.580;11.392;2022-08-21T15:22:42;2.63;;;2.00;;
32152;SDS011;18656;50.580;11.392;2022-08-21T15:25:13;2.30;;;2.10;;
32152;SDS011;18656;50.580;11.392;2022-08-21T15:27:40;3.60;;;1.92;;
32152;SDS011;18656;50.580;11.392;2022-08-21T15:30:08;3.50;;;1.90;;
32152;SDS011;18656;50.580;11.392;2022-08-21T15:32:35;2.45;;;1.98;;
32152;SDS011;18656;50.580;11.392;2022-08-21T15:35:04;2.10;;;1.90;;
32152;SDS011;18656;50.580;11.392;2022-08-21T15:37:31;2.92;;;2.30;;
32152;SDS011;18656;50.580;11.392;2022-08-21T15:39:59;2.00;;;1.90;;
32152;SDS011;18656;50.580;11.392;2022-08-21T15:42:26;2.20;;;1.90;;
32152;SDS011;18656;50.580;11.392;2022-08-21T15:44:54;2.60;;;2.08;;
32152;SDS011;18656;50.580;11.392;2022-08-21T15:47:22;3.05;;;2.53;;
32152;SDS011;18656;50.580;11.392;2022-08-21T15:49:51;4.28;;;2.13;;
32152;SDS011;18656;50.580;11.392;2022-08-21T15:52:19;2.85;;;2.00;;